Guide — WDE7328 — position and weather

sailwx.info

Track history (hours):
 
Tides and Currents Weather Stations Pressure Air Temp Water Temp Dewpoint Dewpoint Depression Visibility Wind Speed Wind Dir Waves Ship Positions

Guide

Owner: Crowley Marine Services, SEATTLE, WA. More information available from US FCC via Universal Licensing System and Coast Guard Vessel Documentation Center.

Last reported at 2016-Dec-06 11:33 UTC. Time now 2016-Dec-06 12:12 UTC.
Position N 47°18' W 122°26'.

Length 34 m; draft 5.1 m.

Type: Tug. MMSI: 366759530.

Date/timePositionNaut miles runAvg speedWind from/ knotsBaromVisibWave heightAir tempDewpointWater temp
2016-Dec-06 11:33N 47°18' W 122°26'0 0.0
2016-Dec-06 10:33N 47°18' W 122°26'0 0.0
2016-Dec-06 09:33N 47°18' W 122°26'0 0.0
2016-Dec-06 08:30N 47°18' W 122°26'0 0.0
2016-Dec-06 07:33N 47°18' W 122°26'3 3.0
2016-Dec-06 06:33N 47°15' W 122°23'2 1.6
2016-Dec-06 05:33N 47°17' W 122°25'1 1.4
2016-Dec-06 04:33N 47°18' W 122°26'0 0.2
2016-Dec-06 03:33N 47°18' W 122°26'0 0.0
2016-Dec-06 02:33N 47°18' W 122°26'0 0.0
2016-Dec-06 01:33N 47°18' W 122°26'0 0.0
2016-Dec-06 00:33N 47°18' W 122°26'0 0.0
2016-Dec-05 23:32N 47°18' W 122°26'0 0.0
2016-Dec-05 22:33N 47°18' W 122°26'3 2.6
2016-Dec-05 21:33N 47°16' W 122°23'2 1.5
2016-Dec-05 20:33N 47°17' W 122°25'0 0.1
2016-Dec-05 19:33N 47°17' W 122°25'2 1.6
2016-Dec-05 18:33N 47°15' W 122°26'0 0.0
2016-Dec-05 17:33N 47°15' W 122°26'0 0.0
2016-Dec-05 16:33N 47°15' W 122°26'0 0.0
2016-Dec-05 15:33N 47°15' W 122°26'0 0.0
2016-Dec-05 14:33N 47°15' W 122°26'0 0.0
2016-Dec-05 13:33N 47°15' W 122°26'0 0.0
2016-Dec-05 11:05N 47°15' W 122°26'0 0.0
2016-Dec-05 10:33N 47°15' W 122°26'0 0.0
2016-Dec-05 09:33N 47°15' W 122°26'0 0.0
2016-Dec-05 08:33N 47°15' W 122°26'0 0.0
2016-Dec-05 07:33N 47°15' W 122°26'0 0.0
2016-Dec-05 06:33N 47°15' W 122°26'0 0.0
2016-Dec-05 05:33N 47°15' W 122°26'0 0.0
2016-Dec-05 04:33N 47°15' W 122°26'0 0.0
2016-Dec-05 03:33N 47°15' W 122°26'0 0.0
2016-Dec-05 02:33N 47°15' W 122°26'0 0.0
2016-Dec-05 01:33N 47°15' W 122°26'0 0.0
2016-Dec-05 00:33N 47°15' W 122°26'0 0.0
2016-Dec-04 23:33N 47°15' W 122°26'0 0.0
2016-Dec-04 22:33N 47°15' W 122°26'0 0.0
2016-Dec-04 21:33N 47°15' W 122°26'0 0.0
2016-Dec-04 20:33N 47°15' W 122°26'0 0.0
2016-Dec-04 19:32N 47°15' W 122°26'0 0.0
2016-Dec-04 18:33N 47°15' W 122°26'0 0.0
2016-Dec-04 17:21N 47°15' W 122°26'0 0.0
2016-Dec-04 13:19N 47°15' W 122°26'0 0.0
2016-Dec-04 12:29N 47°15' W 122°26'0 0.0
2016-Dec-04 11:27N 47°15' W 122°26'0 0.0
2016-Dec-04 08:18N 47°15' W 122°26'0 0.0
2016-Dec-04 03:29N 47°15' W 122°26'0 0.0
2016-Dec-04 02:32N 47°15' W 122°26'2 1.8
2016-Dec-04 01:33N 47°16' W 122°24'0 0.3
2016-Dec-04 00:32N 47°16' W 122°23'2 0.5
2016-Dec-03 20:30N 47°15' W 122°26'0 0.0
2016-Dec-03 19:31N 47°15' W 122°26'0 0.0
2016-Dec-03 18:33N 47°15' W 122°26'0 0.0
2016-Dec-03 17:30N 47°15' W 122°26'2 0.4
2016-Dec-03 13:04N 47°17' W 122°25'0 0.6
2016-Dec-03 12:31N 47°16' W 122°24'1 1.0
2016-Dec-03 11:33N 47°16' W 122°23'0 0.2
2016-Dec-03 09:24N 47°16' W 122°23'0 0.0
2016-Dec-03 08:29N 47°16' W 122°23'0 0.0
2016-Dec-03 06:33N 47°16' W 122°23'2 1.1
2016-Dec-03 04:23N 47°17' W 122°26'2 1.9
2016-Dec-03 03:21N 47°16' W 122°23'0 0.4
2016-Dec-03 02:29N 47°16' W 122°23'2 1.8
2016-Dec-03 01:21N 47°16' W 122°26'0 0.3
2016-Dec-03 00:30N 47°15' W 122°26'0 0.0
2016-Dec-02 23:20N 47°15' W 122°26'0 0.0
2016-Dec-02 22:26N 47°15' W 122°26'0 0.0
2016-Dec-02 17:29N 47°15' W 122°26'0 0.0
2016-Dec-02 16:30N 47°15' W 122°26'0 0.0
2016-Dec-02 15:22N 47°15' W 122°26'0 0.0
2016-Dec-02 14:14N 47°15' W 122°26'2 1.7
2016-Dec-02 13:19N 47°17' W 122°25'1 0.7
2016-Dec-02 11:17N 47°18' W 122°26'3 0.1
2016-Dec-01 17:19N 47°15' W 122°26'0 0.0
2016-Dec-01 16:30N 47°15' W 122°26'0 0.0
2016-Dec-01 14:31N 47°15' W 122°26'0 0.0
2016-Dec-01 13:26N 47°15' W 122°26'0 0.0
2016-Dec-01 12:24N 47°15' W 122°26'0 0.0
2016-Dec-01 10:27N 47°15' W 122°26'0 0.0
2016-Dec-01 08:32N 47°15' W 122°26'0 0.0
2016-Dec-01 07:09N 47°15' W 122°26'2 2.1
2016-Dec-01 06:19N 47°16' W 122°24'3 2.7
2016-Dec-01 05:17N 47°18' W 122°27'1 0.6
2016-Dec-01 04:14N 47°18' W 122°26'0 0.0
2016-Dec-01 03:30N 47°18' W 122°26'0 0.0
2016-Dec-01 02:24N 47°18' W 122°26'0 0.0
2016-Dec-01 01:28N 47°18' W 122°26'2 0.9
2016-Nov-30 23:26N 47°16' W 122°24'2 2.3
2016-Nov-30 22:29N 47°17' W 122°27'3 2.8
2016-Nov-30 21:32N 47°16' W 122°24'0 0.4
2016-Nov-30 20:33N 47°16' W 122°23'0 0.0
2016-Nov-30 19:29N 47°16' W 122°23'0 0.0
2016-Nov-30 18:33N 47°16' W 122°23'0 0.0
2016-Nov-30 17:33N 47°16' W 122°23'0 0.0
2016-Nov-30 16:33N 47°16' W 122°23'0 0.0
2016-Nov-30 15:33N 47°16' W 122°23'0 0.3
2016-Nov-30 14:30N 47°16' W 122°23'2 2.3
2016-Nov-30 13:31N 47°17' W 122°26'1 0.9
2016-Nov-30 12:33N 47°17' W 122°25'2 1.6
2016-Nov-30 11:32N 47°15' W 122°26'0 0.0
2016-Nov-30 10:33N 47°15' W 122°26'0 0.0
2016-Nov-30 09:33N 47°15' W 122°26'0 0.0
2016-Nov-30 08:33N 47°15' W 122°26'0 0.0
2016-Nov-30 05:16N 47°15' W 122°26'0 0.0
2016-Nov-30 04:32N 47°15' W 122°26'0 0.0
2016-Nov-30 02:33N 47°15' W 122°26'0 0.0
2016-Nov-30 01:33N 47°15' W 122°26'2 2.0
2016-Nov-30 00:33N 47°17' W 122°24'2 2.1
2016-Nov-29 23:30N 47°16' W 122°22'1 0.2
2016-Nov-29 21:20N 47°16' W 122°22'3 3.5
2016-Nov-29 20:32N 47°18' W 122°26'0 0.0
2016-Nov-29 19:33N 47°18' W 122°26'0 0.0
2016-Nov-29 18:33N 47°18' W 122°26'0 0.0
2016-Nov-29 17:33N 47°18' W 122°26'0 0.0
2016-Nov-29 16:33N 47°18' W 122°26'0 0.0
2016-Nov-29 15:33N 47°18' W 122°26'3 2.6
2016-Nov-29 14:33N 47°16' W 122°23'1 1.2
2016-Nov-29 13:34N 47°17' W 122°25'0 0.1
2016-Nov-29 12:33N 47°17' W 122°25'2 1.7
2016-Nov-29 11:33N 47°16' W 122°23'3 2.5
2016-Nov-29 10:33N 47°17' W 122°26'1 0.6
2016-Nov-29 09:33N 47°18' W 122°26'0 0.0
2016-Nov-29 08:33N 47°18' W 122°26'0 0.0
2016-Nov-29 07:33N 47°18' W 122°26'0 0.0
2016-Nov-29 06:33N 47°18' W 122°26'0 0.0
2016-Nov-29 05:33N 47°18' W 122°26'0 0.0
2016-Nov-29 04:33N 47°18' W 122°26'1 1.3
2016-Nov-29 03:33N 47°17' W 122°25'2 1.6
2016-Nov-29 02:33N 47°15' W 122°23'0 0.0
2016-Nov-29 01:33N 47°16' W 122°23'0 0.1
2016-Nov-29 00:32N 47°16' W 122°23'2 1.5
2016-Nov-28 23:33N 47°17' W 122°25'6 6.1
2016-Nov-28 22:33N 47°23' W 122°23'8 8.1
2016-Nov-28 21:33N 47°30' W 122°26'6 6.1
2016-Nov-28 20:33N 47°35' W 122°21'0 0.0
2016-Nov-28 19:33N 47°35' W 122°21'0 0.0
2016-Nov-28 18:33N 47°35' W 122°21'0 0.0
2016-Nov-28 17:33N 47°35' W 122°21'0 0.0
2016-Nov-28 16:33N 47°35' W 122°21'0 0.0
2016-Nov-28 15:33N 47°35' W 122°21'0 0.0
2016-Nov-28 14:33N 47°35' W 122°21'0 0.0
2016-Nov-28 13:33N 47°35' W 122°21'0 0.0
2016-Nov-28 12:33N 47°35' W 122°21'0 0.0
2016-Nov-28 11:33N 47°35' W 122°21'0 0.0
2016-Nov-28 10:33N 47°35' W 122°21'0 0.0
2016-Nov-28 09:33N 47°35' W 122°21'0 0.0
2016-Nov-28 08:33N 47°35' W 122°21'1 0.5
2016-Nov-28 07:33N 47°35' W 122°21'2 1.9
2016-Nov-28 06:34N 47°37' W 122°22'4 3.7
2016-Nov-28 05:33N 47°34' W 122°26'1211.8
2016-Nov-28 04:33N 47°22' W 122°22'6 4.7
2016-Nov-28 03:12N 47°16' W 122°24'1 0.8
2016-Nov-28 02:32N 47°16' W 122°23'3 3.1
2016-Nov-28 01:34N 47°18' W 122°26'0 0.5
2016-Nov-28 00:33N 47°18' W 122°26'1 1.4
2016-Nov-27 23:33N 47°16' W 122°25'1 1.2
2016-Nov-27 22:33N 47°17' W 122°26'2 2.2
2016-Nov-27 21:33N 47°15' W 122°26'0 0.0
2016-Nov-27 20:33N 47°15' W 122°26'0 0.0
2016-Nov-27 19:33N 47°15' W 122°26'0 0.0
2016-Nov-27 18:33N 47°15' W 122°26'0 0.0
2016-Nov-27 17:33N 47°15' W 122°26'0 0.0
2016-Nov-27 16:33N 47°15' W 122°26'0 0.0
2016-Nov-27 15:33N 47°15' W 122°26'0 0.0
2016-Nov-27 14:33N 47°15' W 122°26'2 1.6
2016-Nov-27 13:33N 47°17' W 122°25'1 1.1
2016-Nov-27 12:20N 47°16' W 122°24'0 0.0
2016-Nov-27 11:31N 47°16' W 122°24'2 1.9
2016-Nov-27 10:33N 47°15' W 122°26'0 0.0
2016-Nov-27 09:33N 47°15' W 122°26'0 0.0
2016-Nov-27 08:33N 47°15' W 122°26'0 0.0
2016-Nov-27 07:32N 47°15' W 122°26'0 0.0
2016-Nov-27 06:33N 47°15' W 122°26'0 0.0
2016-Nov-27 05:33N 47°15' W 122°26'0 0.0
2016-Nov-27 04:30N 47°15' W 122°26'0 0.0
2016-Nov-27 03:32N 47°15' W 122°26'0 0.0
2016-Nov-27 02:33N 47°15' W 122°26'0 0.0
2016-Nov-27 01:33N 47°15' W 122°26'0 0.0
2016-Nov-27 00:33N 47°15' W 122°26'0 0.0
2016-Nov-26 23:33N 47°15' W 122°26'0 0.0
2016-Nov-26 22:33N 47°15' W 122°26'1 1.1
2016-Nov-26 21:32N 47°16' W 122°25'0 0.0
2016-Nov-26 20:33N 47°16' W 122°25'1 1.1
2016-Nov-26 19:33N 47°15' W 122°26'0 0.0
2016-Nov-26 18:33N 47°15' W 122°26'2 0.6
2016-Nov-26 15:11N 47°17' W 122°26'1 1.4
2016-Nov-26 14:33N 47°17' W 122°25'1 0.8
2016-Nov-26 13:33N 47°17' W 122°26'2 1.9
2016-Nov-26 12:33N 47°15' W 122°26'  
Track history (hours):
 
Tides and Currents Weather Stations Pressure Air Temp Water Temp Dewpoint Dewpoint Depression Visibility Wind Speed Wind Dir Waves Ship Positions

Guide

Owner: Crowley Marine Services, SEATTLE, WA. More information available from US FCC via Universal Licensing System and Coast Guard Vessel Documentation Center.

Last reported at 2016-Dec-06 11:33 UTC. Time now 2016-Dec-06 12:12 UTC.
Position N 47°18' W 122°26'.

Length 34 m; draft 5.1 m.

Type: Tug. MMSI: 366759530.

Date/timePositionNaut miles runAvg speedWind from/ knotsBaromVisibWave heightAir tempDewpointWater temp
2016-Dec-06 11:33N 47°18' W 122°26'0 0.0
2016-Dec-06 10:33N 47°18' W 122°26'0 0.0
2016-Dec-06 09:33N 47°18' W 122°26'0 0.0
2016-Dec-06 08:30N 47°18' W 122°26'0 0.0
2016-Dec-06 07:33N 47°18' W 122°26'3 3.0
2016-Dec-06 06:33N 47°15' W 122°23'2 1.6
2016-Dec-06 05:33N 47°17' W 122°25'1 1.4
2016-Dec-06 04:33N 47°18' W 122°26'0 0.2
2016-Dec-06 03:33N 47°18' W 122°26'0 0.0
2016-Dec-06 02:33N 47°18' W 122°26'0 0.0
2016-Dec-06 01:33N 47°18' W 122°26'0 0.0
2016-Dec-06 00:33N 47°18' W 122°26'0 0.0
2016-Dec-05 23:32N 47°18' W 122°26'0 0.0
2016-Dec-05 22:33N 47°18' W 122°26'3 2.6
2016-Dec-05 21:33N 47°16' W 122°23'2 1.5
2016-Dec-05 20:33N 47°17' W 122°25'0 0.1
2016-Dec-05 19:33N 47°17' W 122°25'2 1.6
2016-Dec-05 18:33N 47°15' W 122°26'0 0.0
2016-Dec-05 17:33N 47°15' W 122°26'0 0.0
2016-Dec-05 16:33N 47°15' W 122°26'0 0.0
2016-Dec-05 15:33N 47°15' W 122°26'0 0.0
2016-Dec-05 14:33N 47°15' W 122°26'0 0.0
2016-Dec-05 13:33N 47°15' W 122°26'0 0.0
2016-Dec-05 11:05N 47°15' W 122°26'0 0.0
2016-Dec-05 10:33N 47°15' W 122°26'0 0.0
2016-Dec-05 09:33N 47°15' W 122°26'0 0.0
2016-Dec-05 08:33N 47°15' W 122°26'0 0.0
2016-Dec-05 07:33N 47°15' W 122°26'0 0.0
2016-Dec-05 06:33N 47°15' W 122°26'0 0.0
2016-Dec-05 05:33N 47°15' W 122°26'0 0.0
2016-Dec-05 04:33N 47°15' W 122°26'0 0.0
2016-Dec-05 03:33N 47°15' W 122°26'0 0.0
2016-Dec-05 02:33N 47°15' W 122°26'0 0.0
2016-Dec-05 01:33N 47°15' W 122°26'0 0.0
2016-Dec-05 00:33N 47°15' W 122°26'0 0.0
2016-Dec-04 23:33N 47°15' W 122°26'0 0.0
2016-Dec-04 22:33N 47°15' W 122°26'0 0.0
2016-Dec-04 21:33N 47°15' W 122°26'0 0.0
2016-Dec-04 20:33N 47°15' W 122°26'0 0.0
2016-Dec-04 19:32N 47°15' W 122°26'0 0.0
2016-Dec-04 18:33N 47°15' W 122°26'0 0.0
2016-Dec-04 17:21N 47°15' W 122°26'0 0.0
2016-Dec-04 13:19N 47°15' W 122°26'0 0.0
2016-Dec-04 12:29N 47°15' W 122°26'0 0.0
2016-Dec-04 11:27N 47°15' W 122°26'0 0.0
2016-Dec-04 08:18N 47°15' W 122°26'0 0.0
2016-Dec-04 03:29N 47°15' W 122°26'0 0.0
2016-Dec-04 02:32N 47°15' W 122°26'2 1.8
2016-Dec-04 01:33N 47°16' W 122°24'0 0.3
2016-Dec-04 00:32N 47°16' W 122°23'2 0.5
2016-Dec-03 20:30N 47°15' W 122°26'0 0.0
2016-Dec-03 19:31N 47°15' W 122°26'0 0.0
2016-Dec-03 18:33N 47°15' W 122°26'0 0.0
2016-Dec-03 17:30N 47°15' W 122°26'2 0.4
2016-Dec-03 13:04N 47°17' W 122°25'0 0.6
2016-Dec-03 12:31N 47°16' W 122°24'1 1.0
2016-Dec-03 11:33N 47°16' W 122°23'0 0.2
2016-Dec-03 09:24N 47°16' W 122°23'0 0.0
2016-Dec-03 08:29N 47°16' W 122°23'0 0.0
2016-Dec-03 06:33N 47°16' W 122°23'2 1.1
2016-Dec-03 04:23N 47°17' W 122°26'2 1.9
2016-Dec-03 03:21N 47°16' W 122°23'0 0.4
2016-Dec-03 02:29N 47°16' W 122°23'2 1.8
2016-Dec-03 01:21N 47°16' W 122°26'0 0.3
2016-Dec-03 00:30N 47°15' W 122°26'0 0.0
2016-Dec-02 23:20N 47°15' W 122°26'0 0.0
2016-Dec-02 22:26N 47°15' W 122°26'0 0.0
2016-Dec-02 17:29N 47°15' W 122°26'0 0.0
2016-Dec-02 16:30N 47°15' W 122°26'0 0.0
2016-Dec-02 15:22N 47°15' W 122°26'0 0.0
2016-Dec-02 14:14N 47°15' W 122°26'2 1.7
2016-Dec-02 13:19N 47°17' W 122°25'1 0.7
2016-Dec-02 11:17N 47°18' W 122°26'3 0.1
2016-Dec-01 17:19N 47°15' W 122°26'0 0.0
2016-Dec-01 16:30N 47°15' W 122°26'0 0.0
2016-Dec-01 14:31N 47°15' W 122°26'0 0.0
2016-Dec-01 13:26N 47°15' W 122°26'0 0.0
2016-Dec-01 12:24N 47°15' W 122°26'0 0.0
2016-Dec-01 10:27N 47°15' W 122°26'0 0.0
2016-Dec-01 08:32N 47°15' W 122°26'0 0.0
2016-Dec-01 07:09N 47°15' W 122°26'2 2.1
2016-Dec-01 06:19N 47°16' W 122°24'3 2.7
2016-Dec-01 05:17N 47°18' W 122°27'1 0.6
2016-Dec-01 04:14N 47°18' W 122°26'0 0.0
2016-Dec-01 03:30N 47°18' W 122°26'0 0.0
2016-Dec-01 02:24N 47°18' W 122°26'0 0.0
2016-Dec-01 01:28N 47°18' W 122°26'2 0.9
2016-Nov-30 23:26N 47°16' W 122°24'2 2.3
2016-Nov-30 22:29N 47°17' W 122°27'3 2.8
2016-Nov-30 21:32N 47°16' W 122°24'0 0.4
2016-Nov-30 20:33N 47°16' W 122°23'0 0.0
2016-Nov-30 19:29N 47°16' W 122°23'0 0.0
2016-Nov-30 18:33N 47°16' W 122°23'0 0.0
2016-Nov-30 17:33N 47°16' W 122°23'0 0.0
2016-Nov-30 16:33N 47°16' W 122°23'0 0.0
2016-Nov-30 15:33N 47°16' W 122°23'0 0.3
2016-Nov-30 14:30N 47°16' W 122°23'2 2.3
2016-Nov-30 13:31N 47°17' W 122°26'1 0.9
2016-Nov-30 12:33N 47°17' W 122°25'2 1.6
2016-Nov-30 11:32N 47°15' W 122°26'0 0.0
2016-Nov-30 10:33N 47°15' W 122°26'0 0.0
2016-Nov-30 09:33N 47°15' W 122°26'0 0.0
2016-Nov-30 08:33N 47°15' W 122°26'0 0.0
2016-Nov-30 05:16N 47°15' W 122°26'0 0.0
2016-Nov-30 04:32N 47°15' W 122°26'0 0.0
2016-Nov-30 02:33N 47°15' W 122°26'0 0.0
2016-Nov-30 01:33N 47°15' W 122°26'2 2.0
2016-Nov-30 00:33N 47°17' W 122°24'2 2.1
2016-Nov-29 23:30N 47°16' W 122°22'1 0.2
2016-Nov-29 21:20N 47°16' W 122°22'3 3.5
2016-Nov-29 20:32N 47°18' W 122°26'0 0.0
2016-Nov-29 19:33N 47°18' W 122°26'0 0.0
2016-Nov-29 18:33N 47°18' W 122°26'0 0.0
2016-Nov-29 17:33N 47°18' W 122°26'0 0.0
2016-Nov-29 16:33N 47°18' W 122°26'0 0.0
2016-Nov-29 15:33N 47°18' W 122°26'3 2.6
2016-Nov-29 14:33N 47°16' W 122°23'1 1.2
2016-Nov-29 13:34N 47°17' W 122°25'0 0.1
2016-Nov-29 12:33N 47°17' W 122°25'2 1.7
2016-Nov-29 11:33N 47°16' W 122°23'3 2.5
2016-Nov-29 10:33N 47°17' W 122°26'1 0.6
2016-Nov-29 09:33N 47°18' W 122°26'0 0.0
2016-Nov-29 08:33N 47°18' W 122°26'0 0.0
2016-Nov-29 07:33N 47°18' W 122°26'0 0.0
2016-Nov-29 06:33N 47°18' W 122°26'0 0.0
2016-Nov-29 05:33N 47°18' W 122°26'0 0.0
2016-Nov-29 04:33N 47°18' W 122°26'1 1.3
2016-Nov-29 03:33N 47°17' W 122°25'2 1.6
2016-Nov-29 02:33N 47°15' W 122°23'0 0.0
2016-Nov-29 01:33N 47°16' W 122°23'0 0.1
2016-Nov-29 00:32N 47°16' W 122°23'2 1.5
2016-Nov-28 23:33N 47°17' W 122°25'6 6.1
2016-Nov-28 22:33N 47°23' W 122°23'8 8.1
2016-Nov-28 21:33N 47°30' W 122°26'6 6.1
2016-Nov-28 20:33N 47°35' W 122°21'0 0.0
2016-Nov-28 19:33N 47°35' W 122°21'0 0.0
2016-Nov-28 18:33N 47°35' W 122°21'0 0.0
2016-Nov-28 17:33N 47°35' W 122°21'0 0.0
2016-Nov-28 16:33N 47°35' W 122°21'0 0.0
2016-Nov-28 15:33N 47°35' W 122°21'0 0.0
2016-Nov-28 14:33N 47°35' W 122°21'0 0.0
2016-Nov-28 13:33N 47°35' W 122°21'0 0.0
2016-Nov-28 12:33N 47°35' W 122°21'0 0.0
2016-Nov-28 11:33N 47°35' W 122°21'0 0.0
2016-Nov-28 10:33N 47°35' W 122°21'0 0.0
2016-Nov-28 09:33N 47°35' W 122°21'0 0.0
2016-Nov-28 08:33N 47°35' W 122°21'1 0.5
2016-Nov-28 07:33N 47°35' W 122°21'2 1.9
2016-Nov-28 06:34N 47°37' W 122°22'4 3.7
2016-Nov-28 05:33N 47°34' W 122°26'1211.8
2016-Nov-28 04:33N 47°22' W 122°22'6 4.7
2016-Nov-28 03:12N 47°16' W 122°24'1 0.8
2016-Nov-28 02:32N 47°16' W 122°23'3 3.1
2016-Nov-28 01:34N 47°18' W 122°26'0 0.5
2016-Nov-28 00:33N 47°18' W 122°26'1 1.4
2016-Nov-27 23:33N 47°16' W 122°25'1 1.2
2016-Nov-27 22:33N 47°17' W 122°26'2 2.2
2016-Nov-27 21:33N 47°15' W 122°26'0 0.0
2016-Nov-27 20:33N 47°15' W 122°26'0 0.0
2016-Nov-27 19:33N 47°15' W 122°26'0 0.0
2016-Nov-27 18:33N 47°15' W 122°26'0 0.0
2016-Nov-27 17:33N 47°15' W 122°26'0 0.0
2016-Nov-27 16:33N 47°15' W 122°26'0 0.0
2016-Nov-27 15:33N 47°15' W 122°26'0 0.0
2016-Nov-27 14:33N 47°15' W 122°26'2 1.6
2016-Nov-27 13:33N 47°17' W 122°25'1 1.1
2016-Nov-27 12:20N 47°16' W 122°24'0 0.0
2016-Nov-27 11:31N 47°16' W 122°24'2 1.9
2016-Nov-27 10:33N 47°15' W 122°26'0 0.0
2016-Nov-27 09:33N 47°15' W 122°26'0 0.0
2016-Nov-27 08:33N 47°15' W 122°26'0 0.0
2016-Nov-27 07:32N 47°15' W 122°26'0 0.0
2016-Nov-27 06:33N 47°15' W 122°26'0 0.0
2016-Nov-27 05:33N 47°15' W 122°26'0 0.0
2016-Nov-27 04:30N 47°15' W 122°26'0 0.0
2016-Nov-27 03:32N 47°15' W 122°26'0 0.0
2016-Nov-27 02:33N 47°15' W 122°26'0 0.0
2016-Nov-27 01:33N 47°15' W 122°26'0 0.0
2016-Nov-27 00:33N 47°15' W 122°26'0 0.0
2016-Nov-26 23:33N 47°15' W 122°26'0 0.0
2016-Nov-26 22:33N 47°15' W 122°26'1 1.1
2016-Nov-26 21:32N 47°16' W 122°25'0 0.0
2016-Nov-26 20:33N 47°16' W 122°25'1 1.1
2016-Nov-26 19:33N 47°15' W 122°26'0 0.0
2016-Nov-26 18:33N 47°15' W 122°26'2 0.6
2016-Nov-26 15:11N 47°17' W 122°26'1 1.4
2016-Nov-26 14:33N 47°17' W 122°25'1 0.8
2016-Nov-26 13:33N 47°17' W 122°26'2 1.9
2016-Nov-26 12:33N 47°15' W 122°26'  

Dump ship's entire track history